createdAt,value
2023-03-01T00:01:46.178Z,21.80
2023-03-01T00:04:14.770Z,13.95
2023-03-01T00:06:47.000Z,27.83
2023-03-01T00:09:15.743Z,10.70
2023-03-01T00:11:44.637Z,18.05
2023-03-01T00:14:13.696Z,21.83
2023-03-01T00:16:45.441Z,19.92
2023-03-01T00:19:17.970Z,24.38
2023-03-01T00:21:46.729Z,47.13
2023-03-01T00:24:15.506Z,21.90
2023-03-01T00:26:43.964Z,16.17
2023-03-01T00:29:12.767Z,26.42
2023-03-01T00:31:41.319Z,59.20
2023-03-01T00:34:11.432Z,21.10
2023-03-01T00:36:39.925Z,29.17
2023-03-01T00:39:13.187Z,14.90
2023-03-01T00:41:42.079Z,10.68
2023-03-01T00:44:10.727Z,10.40
2023-03-01T00:46:39.311Z,8.93
2023-03-01T00:49:07.867Z,12.25
2023-03-01T00:51:37.783Z,10.18
2023-03-01T00:54:06.259Z,9.75
2023-03-01T00:56:34.828Z,9.90
2023-03-01T00:59:03.896Z,8.35
2023-03-01T01:01:32.946Z,7.88
2023-03-01T01:04:03.521Z,13.30
2023-03-01T01:06:35.113Z,12.82
2023-03-01T01:09:06.565Z,9.52
2023-03-01T01:11:37.399Z,10.80
2023-03-01T01:14:05.922Z,16.38
2023-03-01T01:16:34.520Z,13.02
2023-03-01T01:19:04.094Z,8.02
2023-03-01T01:21:32.815Z,12.75
2023-03-01T01:24:01.354Z,12.23
2023-03-01T01:26:33.890Z,12.80
2023-03-01T01:29:04.842Z,11.25
2023-03-01T01:31:34.112Z,13.40
2023-03-01T01:34:05.663Z,29.38
2023-03-01T01:36:34.880Z,15.55
2023-03-01T01:39:03.798Z,16.13
2023-03-01T01:41:33.708Z,16.48
2023-03-01T01:44:27.971Z,13.52
2023-03-01T01:47:00.641Z,11.25
2023-03-01T01:49:34.144Z,12.93
2023-03-01T01:52:09.659Z,12.85
2023-03-01T01:54:43.662Z,13.52
2023-03-01T01:57:20.008Z,14.73
2023-03-01T01:59:52.892Z,14.15
2023-03-01T02:02:22.273Z,15.38
2023-03-01T02:04:54.641Z,11.82
2023-03-01T02:07:25.774Z,12.68
2023-03-01T02:09:54.843Z,12.60
2023-03-01T02:12:27.583Z,10.25
2023-03-01T02:14:57.190Z,14.27
2023-03-01T02:17:25.906Z,18.92
2023-03-01T02:20:07.870Z,14.27
2023-03-01T02:22:39.399Z,13.35
2023-03-01T02:25:30.063Z,16.60
2023-03-01T02:28:04.790Z,19.42
2023-03-01T02:30:35.602Z,15.63
2023-03-01T02:33:05.254Z,15.48
2023-03-01T02:35:36.212Z,13.77
2023-03-01T02:38:08.136Z,13.63
2023-03-01T02:40:40.043Z,18.77
2023-03-01T02:43:12.286Z,12.05
2023-03-01T02:45:51.502Z,18.65
2023-03-01T02:48:20.772Z,11.02
2023-03-01T02:51:06.078Z,16.45
2023-03-01T02:53:45.805Z,12.98
2023-03-01T02:56:15.590Z,13.60
2023-03-01T02:58:49.025Z,13.23
2023-03-01T03:01:20.336Z,12.10
2023-03-01T03:03:49.385Z,25.17
2023-03-01T03:08:47.690Z,10.40
2023-03-01T03:11:16.446Z,22.33
2023-03-01T03:13:49.051Z,18.20
2023-03-01T03:16:19.755Z,25.10
2023-03-01T03:18:48.227Z,20.23
2023-03-01T03:21:17.296Z,11.57
2023-03-01T03:23:46.136Z,18.35
2023-03-01T03:26:16.117Z,21.70
2023-03-01T03:28:44.744Z,20.30
2023-03-01T03:31:13.288Z,14.40
2023-03-01T03:33:43.152Z,17.17
2023-03-01T03:36:13.819Z,17.65
2023-03-01T03:38:42.448Z,15.98
2023-03-01T03:41:11.036Z,16.48
2023-03-01T03:43:41.648Z,15.07
2023-03-01T03:46:11.397Z,14.85
2023-03-01T03:48:42.499Z,11.48
2023-03-01T03:51:14.816Z,14.25
2023-03-01T03:53:43.517Z,18.10
2023-03-01T03:56:12.527Z,18.27
2023-03-01T03:58:41.127Z,12.13
2023-03-01T04:01:09.619Z,13.77
2023-03-01T04:03:38.065Z,9.23
2023-03-01T04:06:07.074Z,14.63
2023-03-01T04:08:36.864Z,14.13
2023-03-01T04:11:20.433Z,16.88
2023-03-01T04:13:48.955Z,16.48
2023-03-01T04:16:17.534Z,19.58
2023-03-01T04:18:46.316Z,14.27
2023-03-01T04:21:15.033Z,17.50
2023-03-01T04:23:44.939Z,16.90
2023-03-01T04:26:13.755Z,20.83
2023-03-01T04:28:46.091Z,13.10
2023-03-01T04:31:18.438Z,12.27
2023-03-01T04:33:50.208Z,15.70
2023-03-01T04:36:20.061Z,18.55
2023-03-01T04:38:50.264Z,13.80
2023-03-01T04:41:21.146Z,14.07
2023-03-01T04:43:50.278Z,16.65
2023-03-01T04:46:20.939Z,14.35
2023-03-01T04:48:49.851Z,16.02
2023-03-01T04:51:19.262Z,15.80
2023-03-01T04:53:48.199Z,14.73
2023-03-01T04:56:19.579Z,14.13
2023-03-01T04:58:48.651Z,15.85
2023-03-01T05:01:19.806Z,13.82
2023-03-01T05:03:49.851Z,15.45
2023-03-01T05:06:20.027Z,16.90
2023-03-01T05:08:48.568Z,16.40
2023-03-01T05:11:18.395Z,13.77
2023-03-01T05:13:46.906Z,14.68
2023-03-01T05:16:15.334Z,14.20
2023-03-01T05:18:44.336Z,12.93
2023-03-01T05:21:16.874Z,19.60
2023-03-01T05:23:45.742Z,13.75
2023-03-01T05:26:31.470Z,13.05
2023-03-01T05:29:01.974Z,19.40
2023-03-01T05:31:31.709Z,12.65
2023-03-01T05:34:00.401Z,13.35
2023-03-01T05:36:29.103Z,13.27
2023-03-01T05:38:57.874Z,14.43
2023-03-01T05:41:26.260Z,12.75
2023-03-01T05:43:54.702Z,13.45
2023-03-01T05:46:25.371Z,22.70
2023-03-01T05:48:53.779Z,15.27
2023-03-01T05:51:23.214Z,17.05
2023-03-01T05:53:51.627Z,16.08
2023-03-01T05:56:20.121Z,13.02
2023-03-01T05:58:50.260Z,16.48
2023-03-01T06:01:18.756Z,11.95
2023-03-01T06:03:48.616Z,17.00
2023-03-01T06:06:17.089Z,25.80
2023-03-01T06:08:45.744Z,15.70
2023-03-01T06:11:14.183Z,11.50
2023-03-01T06:13:43.527Z,27.13
2023-03-01T06:16:12.430Z,25.45
2023-03-01T06:18:42.591Z,22.30
2023-03-01T06:21:12.567Z,39.63
2023-03-01T06:23:41.166Z,33.83
2023-03-01T06:26:10.465Z,16.90
2023-03-01T06:28:38.974Z,24.17
2023-03-01T06:31:09.654Z,15.35
2023-03-01T06:33:38.255Z,16.67
2023-03-01T06:36:07.443Z,22.52
2023-03-01T06:38:37.318Z,20.13
2023-03-01T06:41:06.276Z,14.65
2023-03-01T06:43:34.707Z,15.88
2023-03-01T06:46:07.716Z,15.00
2023-03-01T06:48:37.768Z,13.63
2023-03-01T06:51:06.632Z,16.63
2023-03-01T06:53:35.106Z,15.50
2023-03-01T06:56:05.299Z,19.52
2023-03-01T06:58:33.729Z,13.27
2023-03-01T07:01:02.115Z,15.35
2023-03-01T07:05:58.803Z,13.20
2023-03-01T07:08:27.472Z,18.92
2023-03-01T07:10:59.526Z,11.00
2023-03-01T07:13:29.726Z,15.10
2023-03-01T07:15:58.151Z,17.80
2023-03-01T07:18:26.694Z,13.63
2023-03-01T07:20:55.073Z,17.17
2023-03-01T07:23:23.627Z,13.65
2023-03-01T07:25:55.763Z,18.20
2023-03-01T07:28:25.109Z,19.58
2023-03-01T07:30:55.203Z,15.63
2023-03-01T07:33:23.868Z,16.38
2023-03-01T07:35:58.504Z,17.10
2023-03-01T07:38:27.443Z,17.25
2023-03-01T07:40:56.369Z,19.48
2023-03-01T07:43:24.794Z,18.25
2023-03-01T07:45:53.415Z,15.05
2023-03-01T07:48:23.266Z,16.92
2023-03-01T07:50:51.678Z,17.30
2023-03-01T07:53:20.037Z,18.70
2023-03-01T07:55:48.494Z,26.60
2023-03-01T07:58:16.998Z,14.77
2023-03-01T08:00:45.447Z,14.90
2023-03-01T08:03:13.874Z,14.88
2023-03-01T08:05:43.651Z,17.42
2023-03-01T08:08:12.178Z,16.08
2023-03-01T08:10:40.646Z,14.15
2023-03-01T08:13:09.059Z,12.40
2023-03-01T08:15:37.532Z,15.98
2023-03-01T08:18:07.459Z,18.98
2023-03-01T08:20:35.972Z,17.05
2023-03-01T08:23:05.783Z,21.00
2023-03-01T08:25:34.398Z,19.02
2023-03-01T08:28:02.876Z,17.42
2023-03-01T08:30:31.275Z,11.27
2023-03-01T08:32:59.853Z,13.68
2023-03-01T08:35:28.300Z,17.20
2023-03-01T08:37:56.773Z,15.63
2023-03-01T08:40:26.599Z,13.43
2023-03-01T08:42:55.086Z,12.07
2023-03-01T08:45:23.563Z,9.30
2023-03-01T08:47:54.521Z,14.93
2023-03-01T08:50:25.332Z,11.55
2023-03-01T08:52:53.764Z,15.02
2023-03-01T08:55:22.202Z,17.48
2023-03-01T08:57:51.961Z,18.85
2023-03-01T09:00:21.710Z,10.43
2023-03-01T09:02:50.142Z,12.38
2023-03-01T09:05:20.291Z,15.50
2023-03-01T09:07:48.891Z,12.10
2023-03-01T09:10:19.184Z,10.23
2023-03-01T09:12:47.656Z,12.35
2023-03-01T09:15:17.542Z,17.33
2023-03-01T09:17:45.974Z,22.10
2023-03-01T09:20:14.487Z,11.45
2023-03-01T09:22:42.887Z,12.65
2023-03-01T09:25:11.401Z,10.73
2023-03-01T09:27:39.998Z,11.93
2023-03-01T09:30:09.913Z,13.48
2023-03-01T09:32:43.617Z,16.15
2023-03-01T09:35:12.453Z,12.10
2023-03-01T09:37:45.491Z,12.68
2023-03-01T09:40:18.196Z,14.02
2023-03-01T09:42:54.950Z,13.10
2023-03-01T09:45:30.808Z,12.60
2023-03-01T09:48:02.460Z,15.68
2023-03-01T09:50:36.730Z,13.30
2023-03-01T09:53:08.740Z,12.68
2023-03-01T09:55:44.818Z,13.13
2023-03-01T09:58:44.076Z,13.48
2023-03-01T10:01:25.815Z,13.70
2023-03-01T10:04:11.642Z,11.50
2023-03-01T10:06:44.046Z,14.52
2023-03-01T10:09:16.037Z,10.30
2023-03-01T10:11:47.711Z,15.50
2023-03-01T10:14:29.964Z,12.35
2023-03-01T10:17:03.770Z,13.95
2023-03-01T10:19:40.416Z,12.85
2023-03-01T10:22:17.083Z,11.55
2023-03-01T10:24:47.636Z,11.30
2023-03-01T10:27:21.782Z,13.95
2023-03-01T10:29:56.287Z,11.60
2023-03-01T10:32:25.415Z,11.82
2023-03-01T10:34:55.295Z,12.57
2023-03-01T10:37:25.717Z,13.65
2023-03-01T10:40:03.647Z,13.45
2023-03-01T10:42:33.826Z,13.65
2023-03-01T10:47:45.410Z,12.32
2023-03-01T10:50:23.132Z,12.73
2023-03-01T10:53:02.614Z,13.18
2023-03-01T10:55:36.854Z,10.85
2023-03-01T10:58:11.488Z,11.70
2023-03-01T11:00:52.081Z,11.00
2023-03-01T11:03:24.527Z,13.50
2023-03-01T11:06:00.173Z,13.52
2023-03-01T11:08:43.699Z,11.82
2023-03-01T11:11:20.809Z,11.52
2023-03-01T11:13:54.018Z,13.00
2023-03-01T11:16:35.630Z,11.68
2023-03-01T11:19:20.975Z,14.20
2023-03-01T11:22:13.332Z,17.08
2023-03-01T11:24:45.095Z,12.55
2023-03-01T11:27:22.233Z,14.02
2023-03-01T11:29:55.257Z,10.32
2023-03-01T11:32:27.160Z,12.15
2023-03-01T11:35:01.359Z,14.38
2023-03-01T11:37:37.711Z,11.38
2023-03-01T11:40:15.288Z,11.23
2023-03-01T11:43:03.419Z,10.95
2023-03-01T11:45:45.159Z,12.55
2023-03-01T11:48:47.065Z,12.15
2023-03-01T11:51:25.760Z,11.20
2023-03-01T11:54:08.418Z,12.30
2023-03-01T11:56:42.770Z,10.85
2023-03-01T11:59:34.548Z,7.85
2023-03-01T12:02:24.484Z,11.55
2023-03-01T12:05:08.359Z,12.45
2023-03-01T12:07:48.168Z,12.93
2023-03-01T12:10:27.727Z,13.65
2023-03-01T12:13:14.782Z,13.77
2023-03-01T12:16:01.080Z,12.10
2023-03-01T12:19:10.531Z,10.55
2023-03-01T12:21:57.501Z,12.98
2023-03-01T12:24:52.776Z,11.95
2023-03-01T12:27:40.145Z,13.07
2023-03-01T12:30:26.219Z,14.27
2023-03-01T12:33:07.449Z,11.65
2023-03-01T12:35:50.542Z,12.75
2023-03-01T12:38:35.713Z,11.55
2023-03-01T12:41:19.806Z,11.13
2023-03-01T12:44:03.219Z,11.25
2023-03-01T12:46:53.579Z,11.52
2023-03-01T12:49:27.703Z,11.98
2023-03-01T12:52:01.540Z,7.65
2023-03-01T12:54:32.567Z,10.90
2023-03-01T12:57:10.572Z,9.77
2023-03-01T12:59:45.604Z,10.93
2023-03-01T13:02:23.291Z,13.38
2023-03-01T13:05:06.221Z,13.73
2023-03-01T13:07:43.178Z,14.40
2023-03-01T13:10:22.094Z,12.00
2023-03-01T13:13:03.630Z,15.00
2023-03-01T13:15:36.178Z,10.85
2023-03-01T13:18:26.350Z,12.15
2023-03-01T13:20:58.168Z,13.48
2023-03-01T13:23:29.544Z,12.10
2023-03-01T13:26:14.442Z,13.75
2023-03-01T13:28:52.988Z,12.35
2023-03-01T13:32:02.488Z,15.50
2023-03-01T13:34:51.371Z,13.75
2023-03-01T13:37:31.872Z,15.50
2023-03-01T13:40:06.223Z,15.82
2023-03-01T13:42:56.159Z,12.15
2023-03-01T13:45:40.323Z,19.05
2023-03-01T13:48:13.214Z,12.40
2023-03-01T13:50:51.203Z,11.45
2023-03-01T13:53:23.434Z,11.40
2023-03-01T13:55:55.539Z,14.52
2023-03-01T13:58:26.321Z,17.20
2023-03-01T14:01:00.816Z,17.10
2023-03-01T14:03:31.130Z,14.27
2023-03-01T14:06:14.946Z,13.98
2023-03-01T14:08:45.963Z,11.07
2023-03-01T14:11:42.890Z,15.80
2023-03-01T14:14:23.205Z,14.40
2023-03-01T14:17:02.962Z,11.93
2023-03-01T14:19:34.299Z,12.43
2023-03-01T14:22:20.269Z,11.38
2023-03-01T14:24:50.804Z,15.50
2023-03-01T14:27:20.328Z,10.98
2023-03-01T14:29:57.664Z,14.00
2023-03-01T14:32:28.354Z,15.27
2023-03-01T14:34:58.012Z,16.95
2023-03-01T14:37:31.553Z,10.50
2023-03-01T14:40:01.363Z,14.00
2023-03-01T14:42:35.615Z,12.35
2023-03-01T14:45:06.025Z,13.15
2023-03-01T14:47:36.931Z,12.43
2023-03-01T14:50:10.411Z,14.15
2023-03-01T14:52:43.954Z,13.32
2023-03-01T14:55:20.204Z,12.90
2023-03-01T14:57:50.811Z,13.40
2023-03-01T15:00:22.284Z,12.95
2023-03-01T15:02:53.527Z,18.55
2023-03-01T15:05:28.531Z,11.68
2023-03-01T15:07:59.835Z,13.30
2023-03-01T15:10:30.904Z,14.02
2023-03-01T15:13:12.368Z,12.70
2023-03-01T15:15:46.425Z,10.55
2023-03-01T15:18:19.505Z,14.35
2023-03-01T15:20:49.333Z,11.70
2023-03-01T15:23:28.310Z,11.98
2023-03-01T15:26:01.510Z,13.95
2023-03-01T15:28:33.131Z,13.23
2023-03-01T15:31:05.148Z,12.15
2023-03-01T15:33:37.686Z,12.27
2023-03-01T15:36:34.110Z,12.43
2023-03-01T15:39:07.082Z,11.55
2023-03-01T15:41:48.060Z,10.32
2023-03-01T15:44:18.373Z,11.02
2023-03-01T15:46:50.273Z,10.75
2023-03-01T15:49:33.767Z,15.80
2023-03-01T15:52:02.350Z,13.45
2023-03-01T15:54:32.365Z,12.43
2023-03-01T15:59:29.210Z,12.35
2023-03-01T16:01:57.711Z,11.05
2023-03-01T16:04:26.237Z,11.77
2023-03-01T16:06:56.160Z,12.90
2023-03-01T16:09:25.509Z,12.38
2023-03-01T16:11:55.804Z,12.38
2023-03-01T16:14:24.398Z,12.10
2023-03-01T16:16:52.869Z,12.32
2023-03-01T16:19:21.708Z,11.40
2023-03-01T16:21:50.788Z,12.80
2023-03-01T16:24:19.301Z,11.05
2023-03-01T16:26:47.777Z,12.75
2023-03-01T16:29:17.706Z,15.63
2023-03-01T16:31:46.315Z,10.63
2023-03-01T16:34:15.052Z,13.32
2023-03-01T16:36:44.797Z,14.18
2023-03-01T16:39:13.309Z,16.38
2023-03-01T16:41:41.807Z,13.38
2023-03-01T16:44:10.351Z,12.75
2023-03-01T16:46:40.184Z,13.63
2023-03-01T16:49:08.689Z,13.18
2023-03-01T16:51:37.313Z,12.45
2023-03-01T16:54:06.002Z,11.68
2023-03-01T16:56:36.650Z,18.20
2023-03-01T16:59:06.476Z,12.95
2023-03-01T17:01:38.502Z,14.88
2023-03-01T17:04:11.701Z,14.00
2023-03-01T17:06:40.377Z,10.88
2023-03-01T17:09:08.868Z,12.88
2023-03-01T17:11:37.532Z,16.88
2023-03-01T17:14:06.033Z,16.08
2023-03-01T17:16:34.575Z,14.85
2023-03-01T17:19:03.382Z,12.32
2023-03-01T17:21:33.543Z,14.05
2023-03-01T17:24:02.212Z,16.30
2023-03-01T17:26:31.385Z,13.98
2023-03-01T17:28:59.831Z,11.55
2023-03-01T17:31:28.397Z,15.50
2023-03-01T17:33:59.304Z,13.07
2023-03-01T17:36:28.993Z,13.77
2023-03-01T17:38:58.806Z,15.18
2023-03-01T17:41:27.194Z,14.00
2023-03-01T17:43:55.740Z,17.50
2023-03-01T17:46:24.597Z,13.23
2023-03-01T17:48:53.133Z,15.90
2023-03-01T17:51:21.702Z,16.13
2023-03-01T17:53:50.239Z,14.70
2023-03-01T17:56:20.119Z,15.25
2023-03-01T17:58:48.613Z,12.88
2023-03-01T18:01:19.145Z,18.90
2023-03-01T18:03:47.903Z,16.15
2023-03-01T18:06:18.898Z,17.40
2023-03-01T18:08:49.321Z,17.67
2023-03-01T18:11:18.377Z,20.02
2023-03-01T18:13:49.153Z,16.35
2023-03-01T18:16:19.258Z,19.00
2023-03-01T18:18:48.285Z,18.23
2023-03-01T18:21:17.334Z,18.75
2023-03-01T18:23:45.768Z,17.17
2023-03-01T18:26:17.715Z,24.95
2023-03-01T18:28:47.919Z,22.23
2023-03-01T18:31:21.677Z,28.42
2023-03-01T18:33:53.302Z,33.17
2023-03-01T18:36:23.958Z,24.25
2023-03-01T18:38:53.660Z,28.27
2023-03-01T18:41:22.156Z,25.85
2023-03-01T18:43:50.721Z,16.92
2023-03-01T18:46:21.060Z,20.95
2023-03-01T18:48:49.986Z,25.48
2023-03-01T18:51:19.900Z,19.13
2023-03-01T18:53:48.461Z,22.90
2023-03-01T18:56:17.008Z,21.58
2023-03-01T18:58:45.796Z,19.58
2023-03-01T19:01:16.294Z,19.08
2023-03-01T19:03:48.349Z,23.50
2023-03-01T19:06:17.030Z,24.98
2023-03-01T19:08:45.994Z,59.00
2023-03-01T19:11:17.614Z,46.55
2023-03-01T19:13:47.739Z,16.95
2023-03-01T19:16:19.476Z,48.58
2023-03-01T19:18:51.480Z,41.90
2023-03-01T19:21:25.117Z,39.38
2023-03-01T19:23:53.957Z,49.65
2023-03-01T19:26:24.608Z,66.20
2023-03-01T19:28:53.423Z,30.65
2023-03-01T19:31:25.649Z,40.95
2023-03-01T19:34:09.924Z,46.22
2023-03-01T19:36:39.572Z,16.85
2023-03-01T19:39:08.716Z,27.67
2023-03-01T19:41:37.308Z,40.92
2023-03-01T19:44:07.404Z,33.22
2023-03-01T19:46:36.365Z,18.63
2023-03-01T19:49:07.681Z,17.70
2023-03-01T19:51:38.863Z,37.47
2023-03-01T19:54:09.717Z,29.00
2023-03-01T19:56:38.683Z,24.85
2023-03-01T19:59:07.435Z,32.33
2023-03-01T20:01:37.647Z,41.03
2023-03-01T20:04:09.032Z,18.55
2023-03-01T20:06:39.321Z,17.25
2023-03-01T20:09:20.731Z,16.83
2023-03-01T20:11:50.316Z,22.58
2023-03-01T20:14:21.111Z,22.00
2023-03-01T20:16:51.881Z,18.83
2023-03-01T20:19:21.914Z,16.05
2023-03-01T20:21:50.661Z,18.33
2023-03-01T20:24:19.260Z,15.30
2023-03-01T20:26:47.773Z,18.05
2023-03-01T20:29:16.216Z,16.88
2023-03-01T20:31:44.893Z,29.75
2023-03-01T20:34:13.403Z,17.35
2023-03-01T20:36:44.274Z,13.85
2023-03-01T20:39:12.788Z,19.15
2023-03-01T20:41:42.038Z,20.42
2023-03-01T20:44:11.130Z,16.73
2023-03-01T20:46:39.902Z,26.65
2023-03-01T20:49:08.574Z,36.47
2023-03-01T20:51:37.157Z,25.67
2023-03-01T20:54:07.010Z,19.75
2023-03-01T20:56:35.860Z,21.00
2023-03-01T20:59:05.411Z,20.92
2023-03-01T21:01:33.917Z,23.48
2023-03-01T21:04:02.545Z,21.70
2023-03-01T21:06:32.075Z,27.95
2023-03-01T21:09:00.918Z,40.85
2023-03-01T21:11:30.786Z,26.58
2023-03-01T21:13:59.461Z,43.47
2023-03-01T21:16:28.405Z,42.45
2023-03-01T21:18:56.982Z,32.55
2023-03-01T21:21:25.497Z,28.00
2023-03-01T21:23:55.121Z,24.95
2023-03-01T21:26:25.344Z,21.17
2023-03-01T21:28:58.477Z,27.73
2023-03-01T21:31:29.573Z,27.13
2023-03-01T21:34:00.401Z,23.17
2023-03-01T21:36:30.737Z,28.27
2023-03-01T21:39:00.858Z,37.92
2023-03-01T21:41:31.881Z,28.65
2023-03-01T21:44:03.825Z,29.13
2023-03-01T21:46:36.569Z,31.42
2023-03-01T21:49:06.046Z,36.67
2023-03-01T21:51:36.374Z,44.08
2023-03-01T21:56:38.799Z,45.80
2023-03-01T21:59:12.895Z,49.10
2023-03-01T22:01:41.495Z,58.67
2023-03-01T22:04:10.147Z,60.40
2023-03-01T22:06:40.978Z,46.22
2023-03-01T22:09:13.551Z,56.67
2023-03-01T22:11:44.123Z,20.27
2023-03-01T22:14:14.821Z,22.52
2023-03-01T22:16:45.516Z,38.30
2023-03-01T22:19:15.255Z,40.95
2023-03-01T22:21:45.799Z,31.73
2023-03-01T22:24:15.073Z,33.50
2023-03-01T22:26:45.616Z,38.97
2023-03-01T22:29:19.261Z,50.47
2023-03-01T22:31:47.855Z,26.35
2023-03-01T22:34:17.078Z,49.10
2023-03-01T22:36:46.944Z,56.80
2023-03-01T22:39:17.356Z,63.67
2023-03-01T22:41:47.544Z,47.22
2023-03-01T22:44:18.937Z,77.00
2023-03-01T22:46:48.446Z,30.13
2023-03-01T22:49:18.290Z,18.45
2023-03-01T22:51:48.144Z,16.60
2023-03-01T22:54:18.679Z,20.10
2023-03-01T22:56:47.604Z,17.63
2023-03-01T22:59:20.808Z,23.92
2023-03-01T23:01:49.867Z,20.27
2023-03-01T23:04:19.387Z,20.98
2023-03-01T23:06:54.781Z,27.67
2023-03-01T23:09:26.498Z,25.95
2023-03-01T23:11:56.231Z,32.67
2023-03-01T23:14:27.023Z,43.45
2023-03-01T23:16:55.563Z,37.65
2023-03-01T23:19:24.476Z,41.50
2023-03-01T23:21:54.304Z,46.55
2023-03-01T23:24:25.675Z,52.00
2023-03-01T23:26:54.316Z,65.53
2023-03-01T23:29:23.202Z,37.20
2023-03-01T23:31:53.061Z,98.93
2023-03-01T23:34:21.653Z,50.30
2023-03-01T23:36:52.925Z,68.78
2023-03-01T23:39:22.284Z,86.20
2023-03-01T23:41:51.217Z,81.03
2023-03-01T23:44:22.499Z,119.85
2023-03-01T23:46:51.456Z,93.88
2023-03-01T23:49:23.086Z,116.07
2023-03-01T23:51:52.103Z,80.55
2023-03-01T23:54:22.256Z,101.50
2023-03-01T23:56:50.732Z,122.88
2023-03-01T23:59:21.821Z,145.32
